sensor_id;sensor_type;location;lat;lon;timestamp;pressure;altitude;pressure_sealevel;temperature;humidity
48652;BME280;34442;52.362;-1.302;2024-02-15T00:01:51;99647.25;;;13.17;100.00
48652;BME280;34442;52.362;-1.302;2024-02-15T00:04:17;99632.81;;;13.23;100.00
48652;BME280;34442;52.362;-1.302;2024-02-15T00:06:44;99629.00;;;13.53;100.00
48652;BME280;34442;52.362;-1.302;2024-02-15T00:09:09;99631.69;;;13.86;100.00
48652;BME280;34442;52.362;-1.302;2024-02-15T00:11:35;99627.84;;;13.99;100.00
48652;BME280;34442;52.362;-1.302;2024-02-15T00:14:01;99632.34;;;13.94;100.00
48652;BME280;34442;52.362;-1.302;2024-02-15T00:16:26;99632.94;;;13.96;100.00
48652;BME280;34442;52.362;-1.302;2024-02-15T00:18:53;99634.97;;;13.88;100.00
48652;BME280;34442;52.362;-1.302;2024-02-15T00:21:20;99633.91;;;13.89;100.00
48652;BME280;34442;52.362;-1.302;2024-02-15T00:23:48;99627.19;;;13.92;100.00
48652;BME280;34442;52.362;-1.302;2024-02-15T00:26:14;99618.09;;;13.81;100.00
48652;BME280;34442;52.362;-1.302;2024-02-15T00:28:41;99629.25;;;13.85;100.00
48652;BME280;34442;52.362;-1.302;2024-02-15T00:31:07;99641.13;;;13.84;100.00
48652;BME280;34442;52.362;-1.302;2024-02-15T00:33:33;99636.38;;;13.91;100.00
48652;BME280;34442;52.362;-1.302;2024-02-15T00:36:00;99632.13;;;13.95;100.00
48652;BME280;34442;52.362;-1.302;2024-02-15T00:38:26;99619.19;;;13.80;100.00
48652;BME280;34442;52.362;-1.302;2024-02-15T00:40:52;99610.25;;;13.80;100.00
48652;BME280;34442;52.362;-1.302;2024-02-15T00:43:18;99617.88;;;13.83;100.00
48652;BME280;34442;52.362;-1.302;2024-02-15T00:45:44;99638.16;;;13.85;100.00
48652;BME280;34442;52.362;-1.302;2024-02-15T00:48:10;99640.06;;;13.85;100.00
48652;BME280;34442;52.362;-1.302;2024-02-15T00:50:36;99645.19;;;13.70;100.00
48652;BME280;34442;52.362;-1.302;2024-02-15T00:53:02;99647.19;;;13.91;100.00
48652;BME280;34442;52.362;-1.302;2024-02-15T00:55:27;99652.00;;;13.89;100.00
48652;BME280;34442;52.362;-1.302;2024-02-15T00:57:53;99652.00;;;13.89;100.00
48652;BME280;34442;52.362;-1.302;2024-02-15T01:00:18;99645.31;;;13.92;100.00
48652;BME280;34442;52.362;-1.302;2024-02-15T01:02:44;99643.56;;;13.85;100.00
48652;BME280;34442;52.362;-1.302;2024-02-15T01:05:09;99652.34;;;13.93;100.00
48652;BME280;34442;52.362;-1.302;2024-02-15T01:07:35;99663.31;;;13.86;100.00
48652;BME280;34442;52.362;-1.302;2024-02-15T01:10:00;99640.88;;;13.85;100.00
48652;BME280;34442;52.362;-1.302;2024-02-15T01:12:26;99632.69;;;13.97;100.00
48652;BME280;34442;52.362;-1.302;2024-02-15T01:14:51;99636.59;;;13.89;100.00
48652;BME280;34442;52.362;-1.302;2024-02-15T01:17:17;99625.31;;;13.93;100.00
48652;BME280;34442;52.362;-1.302;2024-02-15T01:19:42;99621.31;;;13.95;100.00
48652;BME280;34442;52.362;-1.302;2024-02-15T01:22:08;99629.91;;;13.92;100.00
48652;BME280;34442;52.362;-1.302;2024-02-15T01:24:34;99625.56;;;13.91;100.00
48652;BME280;34442;52.362;-1.302;2024-02-15T01:26:59;99634.56;;;13.97;100.00
48652;BME280;34442;52.362;-1.302;2024-02-15T01:29:24;99633.91;;;13.89;100.00
48652;BME280;34442;52.362;-1.302;2024-02-15T01:31:51;99639.22;;;14.01;100.00
48652;BME280;34442;52.362;-1.302;2024-02-15T01:34:17;99639.63;;;13.93;100.00
48652;BME280;34442;52.362;-1.302;2024-02-15T01:36:42;99648.34;;;13.95;100.00
48652;BME280;34442;52.362;-1.302;2024-02-15T01:39:08;99651.59;;;13.97;100.00
48652;BME280;34442;52.362;-1.302;2024-02-15T01:41:33;99645.69;;;14.00;100.00
48652;BME280;34442;52.362;-1.302;2024-02-15T01:43:59;99639.56;;;14.05;100.00
48652;BME280;34442;52.362;-1.302;2024-02-15T01:46:24;99635.22;;;14.04;100.00
48652;BME280;34442;52.362;-1.302;2024-02-15T01:48:51;99619.44;;;13.96;100.00
48652;BME280;34442;52.362;-1.302;2024-02-15T01:51:16;99604.59;;;13.98;100.00
48652;BME280;34442;52.362;-1.302;2024-02-15T01:53:43;99595.28;;;13.72;100.00
48652;BME280;34442;52.362;-1.302;2024-02-15T01:56:10;99590.75;;;13.95;100.00
48652;BME280;34442;52.362;-1.302;2024-02-15T01:58:39;99583.78;;;13.99;100.00
48652;BME280;34442;52.362;-1.302;2024-02-15T02:01:06;99597.28;;;13.99;100.00
48652;BME280;34442;52.362;-1.302;2024-02-15T02:03:32;99621.53;;;13.94;100.00
48652;BME280;34442;52.362;-1.302;2024-02-15T02:05:57;99614.75;;;13.91;100.00
48652;BME280;34442;52.362;-1.302;2024-02-15T02:08:23;99621.88;;;13.97;100.00
48652;BME280;34442;52.362;-1.302;2024-02-15T02:10:50;99614.03;;;13.96;100.00
48652;BME280;34442;52.362;-1.302;2024-02-15T02:13:15;99606.22;;;13.82;100.00
48652;BME280;34442;52.362;-1.302;2024-02-15T02:15:41;99591.75;;;13.88;100.00
48652;BME280;34442;52.362;-1.302;2024-02-15T02:18:06;99604.66;;;13.86;100.00
48652;BME280;34442;52.362;-1.302;2024-02-15T02:20:34;99602.56;;;13.88;100.00
48652;BME280;34442;52.362;-1.302;2024-02-15T02:23:20;99600.50;;;13.96;100.00
48652;BME280;34442;52.362;-1.302;2024-02-15T02:25:48;99603.22;;;13.96;100.00
48652;BME280;34442;52.362;-1.302;2024-02-15T02:28:14;99606.31;;;14.04;100.00
48652;BME280;34442;52.362;-1.302;2024-02-15T02:30:41;99603.13;;;13.90;100.00
48652;BME280;34442;52.362;-1.302;2024-02-15T02:33:13;99606.72;;;13.96;100.00
48652;BME280;34442;52.362;-1.302;2024-02-15T02:35:44;99596.31;;;14.05;100.00
48652;BME280;34442;52.362;-1.302;2024-02-15T02:38:10;99584.34;;;14.01;100.00
48652;BME280;34442;52.362;-1.302;2024-02-15T02:40:35;99582.78;;;14.05;100.00
48652;BME280;34442;52.362;-1.302;2024-02-15T02:43:01;99586.31;;;14.05;100.00
48652;BME280;34442;52.362;-1.302;2024-02-15T02:45:27;99591.78;;;14.10;100.00
48652;BME280;34442;52.362;-1.302;2024-02-15T02:47:53;99591.13;;;14.20;100.00
48652;BME280;34442;52.362;-1.302;2024-02-15T02:50:22;99589.72;;;14.18;100.00
48652;BME280;34442;52.362;-1.302;2024-02-15T02:52:48;99589.22;;;14.21;100.00
48652;BME280;34442;52.362;-1.302;2024-02-15T02:55:17;99593.00;;;14.20;100.00
48652;BME280;34442;52.362;-1.302;2024-02-15T02:57:42;99585.78;;;14.25;100.00
48652;BME280;34442;52.362;-1.302;2024-02-15T03:00:10;99585.50;;;14.27;100.00
48652;BME280;34442;52.362;-1.302;2024-02-15T03:02:38;99579.78;;;14.23;100.00
48652;BME280;34442;52.362;-1.302;2024-02-15T03:05:05;99573.56;;;14.23;100.00
48652;BME280;34442;52.362;-1.302;2024-02-15T03:07:35;99576.16;;;14.12;100.00
48652;BME280;34442;52.362;-1.302;2024-02-15T03:10:04;99574.94;;;13.19;100.00
48652;BME280;34442;52.362;-1.302;2024-02-15T03:12:34;99569.97;;;13.61;100.00
48652;BME280;34442;52.362;-1.302;2024-02-15T03:15:01;99548.34;;;13.95;100.00
48652;BME280;34442;52.362;-1.302;2024-02-15T03:17:27;99535.28;;;13.53;100.00
48652;BME280;34442;52.362;-1.302;2024-02-15T03:19:52;99529.13;;;13.92;100.00
48652;BME280;34442;52.362;-1.302;2024-02-15T03:22:18;99561.75;;;13.90;100.00
48652;BME280;34442;52.362;-1.302;2024-02-15T03:24:46;99554.69;;;14.06;100.00
48652;BME280;34442;52.362;-1.302;2024-02-15T03:27:11;99549.78;;;14.03;100.00
48652;BME280;34442;52.362;-1.302;2024-02-15T03:29:38;99548.78;;;14.09;100.00
48652;BME280;34442;52.362;-1.302;2024-02-15T03:32:03;99556.09;;;14.08;100.00
48652;BME280;34442;52.362;-1.302;2024-02-15T03:34:31;99550.91;;;14.07;100.00
48652;BME280;34442;52.362;-1.302;2024-02-15T03:36:57;99546.25;;;14.02;100.00
48652;BME280;34442;52.362;-1.302;2024-02-15T03:39:23;99537.41;;;14.07;100.00
48652;BME280;34442;52.362;-1.302;2024-02-15T03:41:49;99543.88;;;14.06;100.00
48652;BME280;34442;52.362;-1.302;2024-02-15T03:44:16;99542.00;;;14.06;100.00
48652;BME280;34442;52.362;-1.302;2024-02-15T03:46:44;99538.97;;;14.03;100.00
48652;BME280;34442;52.362;-1.302;2024-02-15T03:49:19;99534.16;;;14.05;100.00
48652;BME280;34442;52.362;-1.302;2024-02-15T03:51:45;99540.09;;;14.07;100.00
48652;BME280;34442;52.362;-1.302;2024-02-15T03:54:13;99528.25;;;14.08;100.00
48652;BME280;34442;52.362;-1.302;2024-02-15T03:56:49;99533.22;;;14.16;100.00
48652;BME280;34442;52.362;-1.302;2024-02-15T03:59:17;99534.38;;;13.14;100.00
48652;BME280;34442;52.362;-1.302;2024-02-15T04:01:44;99528.78;;;13.04;100.00
48652;BME280;34442;52.362;-1.302;2024-02-15T04:04:12;99517.91;;;13.83;100.00
48652;BME280;34442;52.362;-1.302;2024-02-15T04:06:38;99518.09;;;13.98;100.00
48652;BME280;34442;52.362;-1.302;2024-02-15T04:09:06;99529.28;;;14.07;100.00
48652;BME280;34442;52.362;-1.302;2024-02-15T04:11:32;99515.56;;;14.08;100.00
48652;BME280;34442;52.362;-1.302;2024-02-15T04:13:58;99509.66;;;14.11;100.00
48652;BME280;34442;52.362;-1.302;2024-02-15T04:16:24;99524.72;;;14.07;100.00
48652;BME280;34442;52.362;-1.302;2024-02-15T04:18:50;99523.34;;;14.05;100.00
48652;BME280;34442;52.362;-1.302;2024-02-15T04:21:16;99516.41;;;14.14;100.00
48652;BME280;34442;52.362;-1.302;2024-02-15T04:23:45;99509.19;;;13.98;100.00
48652;BME280;34442;52.362;-1.302;2024-02-15T04:26:11;99510.47;;;14.12;100.00
48652;BME280;34442;52.362;-1.302;2024-02-15T04:28:39;99516.75;;;14.18;100.00
48652;BME280;34442;52.362;-1.302;2024-02-15T04:31:04;99522.91;;;14.13;100.00
48652;BME280;34442;52.362;-1.302;2024-02-15T04:33:33;99521.38;;;14.22;100.00
48652;BME280;34442;52.362;-1.302;2024-02-15T04:35:59;99529.75;;;14.21;100.00
48652;BME280;34442;52.362;-1.302;2024-02-15T04:38:27;99534.25;;;14.15;100.00
48652;BME280;34442;52.362;-1.302;2024-02-15T04:40:53;99534.53;;;14.13;100.00
48652;BME280;34442;52.362;-1.302;2024-02-15T04:43:19;99527.19;;;14.09;100.00
48652;BME280;34442;52.362;-1.302;2024-02-15T04:45:45;99525.34;;;14.14;100.00
48652;BME280;34442;52.362;-1.302;2024-02-15T04:48:11;99530.50;;;14.16;100.00
48652;BME280;34442;52.362;-1.302;2024-02-15T04:50:39;99522.31;;;14.11;100.00
48652;BME280;34442;52.362;-1.302;2024-02-15T04:53:08;99527.50;;;14.12;100.00
48652;BME280;34442;52.362;-1.302;2024-02-15T04:55:34;99525.53;;;14.08;100.00
48652;BME280;34442;52.362;-1.302;2024-02-15T04:58:00;99509.88;;;14.10;100.00
48652;BME280;34442;52.362;-1.302;2024-02-15T05:00:26;99509.72;;;14.17;100.00
48652;BME280;34442;52.362;-1.302;2024-02-15T05:02:52;99498.41;;;14.20;100.00
48652;BME280;34442;52.362;-1.302;2024-02-15T05:05:18;99498.41;;;14.20;100.00
48652;BME280;34442;52.362;-1.302;2024-02-15T05:07:43;99494.41;;;14.27;100.00
48652;BME280;34442;52.362;-1.302;2024-02-15T05:10:09;99486.06;;;14.29;100.00
48652;BME280;34442;52.362;-1.302;2024-02-15T05:12:35;99487.94;;;14.28;100.00
48652;BME280;34442;52.362;-1.302;2024-02-15T05:15:00;99497.50;;;14.36;100.00
48652;BME280;34442;52.362;-1.302;2024-02-15T05:17:27;99494.66;;;14.26;100.00
48652;BME280;34442;52.362;-1.302;2024-02-15T05:19:56;99496.63;;;14.30;100.00
48652;BME280;34442;52.362;-1.302;2024-02-15T05:22:25;99490.22;;;14.36;100.00
48652;BME280;34442;52.362;-1.302;2024-02-15T05:24:57;99491.34;;;14.40;100.00
48652;BME280;34442;52.362;-1.302;2024-02-15T05:27:23;99495.66;;;14.42;100.00
48652;BME280;34442;52.362;-1.302;2024-02-15T05:29:48;99484.84;;;14.42;100.00
48652;BME280;34442;52.362;-1.302;2024-02-15T05:32:14;99487.13;;;14.50;100.00
48652;BME280;34442;52.362;-1.302;2024-02-15T05:34:39;99481.13;;;14.48;100.00
48652;BME280;34442;52.362;-1.302;2024-02-15T05:37:05;99484.34;;;14.45;100.00
48652;BME280;34442;52.362;-1.302;2024-02-15T05:39:32;99469.38;;;14.37;100.00
48652;BME280;34442;52.362;-1.302;2024-02-15T05:41:57;99482.38;;;14.40;100.00
48652;BME280;34442;52.362;-1.302;2024-02-15T05:44:26;99475.41;;;14.44;100.00
48652;BME280;34442;52.362;-1.302;2024-02-15T05:46:51;99480.00;;;14.44;100.00
48652;BME280;34442;52.362;-1.302;2024-02-15T05:49:17;99476.84;;;14.52;100.00
48652;BME280;34442;52.362;-1.302;2024-02-15T05:51:43;99479.06;;;14.55;100.00
48652;BME280;34442;52.362;-1.302;2024-02-15T05:54:10;99467.38;;;14.49;100.00
48652;BME280;34442;52.362;-1.302;2024-02-15T05:56:35;99474.41;;;14.50;100.00
48652;BME280;34442;52.362;-1.302;2024-02-15T05:59:01;99470.41;;;14.53;100.00
48652;BME280;34442;52.362;-1.302;2024-02-15T06:01:36;99473.81;;;14.48;100.00
48652;BME280;34442;52.362;-1.302;2024-02-15T06:04:01;99473.38;;;14.56;100.00
48652;BME280;34442;52.362;-1.302;2024-02-15T06:06:30;99463.75;;;14.44;100.00
48652;BME280;34442;52.362;-1.302;2024-02-15T06:08:55;99468.25;;;14.55;100.00
48652;BME280;34442;52.362;-1.302;2024-02-15T06:11:25;99449.00;;;14.51;100.00
48652;BME280;34442;52.362;-1.302;2024-02-15T06:13:50;99457.38;;;14.50;100.00
48652;BME280;34442;52.362;-1.302;2024-02-15T06:16:15;99461.16;;;14.49;100.00
48652;BME280;34442;52.362;-1.302;2024-02-15T06:18:41;99466.63;;;14.54;100.00
48652;BME280;34442;52.362;-1.302;2024-02-15T06:21:06;99458.81;;;14.57;100.00
48652;BME280;34442;52.362;-1.302;2024-02-15T06:23:32;99446.97;;;14.63;100.00
48652;BME280;34442;52.362;-1.302;2024-02-15T06:25:58;99455.13;;;14.69;100.00
48652;BME280;34442;52.362;-1.302;2024-02-15T06:28:26;99461.06;;;14.66;100.00
48652;BME280;34442;52.362;-1.302;2024-02-15T06:31:11;99461.38;;;14.69;100.00
48652;BME280;34442;52.362;-1.302;2024-02-15T06:33:56;99456.41;;;14.61;100.00
48652;BME280;34442;52.362;-1.302;2024-02-15T06:39:29;99451.06;;;14.66;100.00
48652;BME280;34442;52.362;-1.302;2024-02-15T06:42:09;99458.34;;;14.17;100.00
48652;BME280;34442;52.362;-1.302;2024-02-15T06:44:36;99455.03;;;14.58;100.00
48652;BME280;34442;52.362;-1.302;2024-02-15T06:47:04;99457.47;;;14.60;100.00
48652;BME280;34442;52.362;-1.302;2024-02-15T06:49:29;99447.78;;;14.64;100.00
48652;BME280;34442;52.362;-1.302;2024-02-15T06:51:55;99454.41;;;14.51;100.00
48652;BME280;34442;52.362;-1.302;2024-02-15T06:54:20;99451.56;;;14.63;100.00
48652;BME280;34442;52.362;-1.302;2024-02-15T06:56:46;99455.38;;;14.67;100.00
48652;BME280;34442;52.362;-1.302;2024-02-15T06:59:12;99449.97;;;14.67;100.00
48652;BME280;34442;52.362;-1.302;2024-02-15T07:01:42;99456.50;;;14.71;100.00
48652;BME280;34442;52.362;-1.302;2024-02-15T07:04:08;99450.81;;;14.73;100.00
48652;BME280;34442;52.362;-1.302;2024-02-15T07:06:36;99446.44;;;14.67;100.00
48652;BME280;34442;52.362;-1.302;2024-02-15T07:09:03;99447.06;;;14.74;100.00
48652;BME280;34442;52.362;-1.302;2024-02-15T07:11:29;99450.59;;;14.74;100.00
48652;BME280;34442;52.362;-1.302;2024-02-15T07:13:55;99451.44;;;14.80;100.00
48652;BME280;34442;52.362;-1.302;2024-02-15T07:16:22;99458.44;;;14.76;100.00
48652;BME280;34442;52.362;-1.302;2024-02-15T07:18:47;99447.91;;;13.81;100.00
48652;BME280;34442;52.362;-1.302;2024-02-15T07:21:13;99459.91;;;13.69;100.00
48652;BME280;34442;52.362;-1.302;2024-02-15T07:23:42;99448.38;;;13.56;100.00
48652;BME280;34442;52.362;-1.302;2024-02-15T07:26:07;99453.38;;;13.64;100.00
48652;BME280;34442;52.362;-1.302;2024-02-15T07:28:33;99447.56;;;13.56;100.00
48652;BME280;34442;52.362;-1.302;2024-02-15T07:30:59;99447.50;;;13.51;100.00
48652;BME280;34442;52.362;-1.302;2024-02-15T07:33:28;99448.66;;;13.55;100.00
48652;BME280;34442;52.362;-1.302;2024-02-15T07:35:54;99451.44;;;13.43;100.00
48652;BME280;34442;52.362;-1.302;2024-02-15T07:38:19;99448.81;;;13.48;100.00
48652;BME280;34442;52.362;-1.302;2024-02-15T07:40:48;99444.50;;;13.47;100.00
48652;BME280;34442;52.362;-1.302;2024-02-15T07:43:14;99443.09;;;13.45;100.00
48652;BME280;34442;52.362;-1.302;2024-02-15T07:45:39;99444.75;;;13.46;100.00
48652;BME280;34442;52.362;-1.302;2024-02-15T07:48:05;99441.53;;;13.49;100.00
48652;BME280;34442;52.362;-1.302;2024-02-15T07:50:31;99444.56;;;13.52;100.00
48652;BME280;34442;52.362;-1.302;2024-02-15T07:52:56;99447.03;;;13.54;100.00
48652;BME280;34442;52.362;-1.302;2024-02-15T07:55:23;99441.09;;;13.57;100.00
48652;BME280;34442;52.362;-1.302;2024-02-15T07:57:52;99444.88;;;13.56;100.00
48652;BME280;34442;52.362;-1.302;2024-02-15T08:00:20;99442.34;;;13.49;100.00
48652;BME280;34442;52.362;-1.302;2024-02-15T08:02:46;99448.06;;;13.53;100.00
48652;BME280;34442;52.362;-1.302;2024-02-15T08:05:13;99449.41;;;13.50;100.00
48652;BME280;34442;52.362;-1.302;2024-02-15T08:07:43;99443.25;;;13.55;100.00
48652;BME280;34442;52.362;-1.302;2024-02-15T08:10:10;99444.81;;;13.51;100.00
48652;BME280;34442;52.362;-1.302;2024-02-15T08:12:43;99447.56;;;13.56;100.00
48652;BME280;34442;52.362;-1.302;2024-02-15T08:15:09;99446.00;;;13.60;100.00
48652;BME280;34442;52.362;-1.302;2024-02-15T08:17:48;99456.06;;;13.64;100.00
48652;BME280;34442;52.362;-1.302;2024-02-15T08:20:14;99453.03;;;13.61;100.00
48652;BME280;34442;52.362;-1.302;2024-02-15T08:22:40;99453.75;;;13.73;100.00
48652;BME280;34442;52.362;-1.302;2024-02-15T08:25:10;99454.88;;;13.77;100.00
48652;BME280;34442;52.362;-1.302;2024-02-15T08:27:56;99465.84;;;13.87;100.00
48652;BME280;34442;52.362;-1.302;2024-02-15T08:30:22;99463.31;;;13.81;100.00
48652;BME280;34442;52.362;-1.302;2024-02-15T08:32:47;99464.38;;;13.80;100.00
48652;BME280;34442;52.362;-1.302;2024-02-15T08:35:13;99457.09;;;13.80;100.00
48652;BME280;34442;52.362;-1.302;2024-02-15T08:37:41;99453.94;;;13.88;100.00
48652;BME280;34442;52.362;-1.302;2024-02-15T08:40:10;99456.66;;;13.88;100.00
48652;BME280;34442;52.362;-1.302;2024-02-15T08:42:41;99453.78;;;13.95;100.00
48652;BME280;34442;52.362;-1.302;2024-02-15T08:45:07;99444.59;;;13.96;100.00
48652;BME280;34442;52.362;-1.302;2024-02-15T08:47:38;99445.84;;;13.88;100.00
48652;BME280;34442;52.362;-1.302;2024-02-15T08:50:04;99442.38;;;13.93;100.00
48652;BME280;34442;52.362;-1.302;2024-02-15T08:52:30;99437.84;;;13.99;100.00
48652;BME280;34442;52.362;-1.302;2024-02-15T08:54:56;99440.09;;;14.07;100.00
48652;BME280;34442;52.362;-1.302;2024-02-15T08:57:24;99440.94;;;14.07;100.00
48652;BME280;34442;52.362;-1.302;2024-02-15T08:59:49;99441.19;;;14.06;100.00
48652;BME280;34442;52.362;-1.302;2024-02-15T09:02:17;99444.66;;;14.01;100.00
48652;BME280;34442;52.362;-1.302;2024-02-15T09:04:43;99437.94;;;14.04;100.00
48652;BME280;34442;52.362;-1.302;2024-02-15T09:07:08;99419.50;;;14.01;100.00
48652;BME280;34442;52.362;-1.302;2024-02-15T09:09:35;99419.81;;;14.04;100.00
48652;BME280;34442;52.362;-1.302;2024-02-15T09:12:02;99426.16;;;14.15;100.00
48652;BME280;34442;52.362;-1.302;2024-02-15T09:14:34;99427.81;;;14.16;100.00
48652;BME280;34442;52.362;-1.302;2024-02-15T09:17:00;99430.19;;;14.12;100.00
48652;BME280;34442;52.362;-1.302;2024-02-15T09:19:25;99428.56;;;14.11;100.00
48652;BME280;34442;52.362;-1.302;2024-02-15T09:21:51;99426.22;;;14.20;100.00
48652;BME280;34442;52.362;-1.302;2024-02-15T09:24:18;99417.09;;;14.26;100.00
48652;BME280;34442;52.362;-1.302;2024-02-15T09:26:44;99424.34;;;14.21;100.00
48652;BME280;34442;52.362;-1.302;2024-02-15T09:29:10;99422.88;;;14.62;100.00
48652;BME280;34442;52.362;-1.302;2024-02-15T09:31:35;99424.88;;;14.77;100.00
48652;BME280;34442;52.362;-1.302;2024-02-15T09:34:01;99437.75;;;14.92;100.00
48652;BME280;34442;52.362;-1.302;2024-02-15T09:36:34;99424.53;;;15.00;100.00
48652;BME280;34442;52.362;-1.302;2024-02-15T09:38:59;99431.31;;;14.98;100.00
48652;BME280;34442;52.362;-1.302;2024-02-15T09:41:25;99434.03;;;15.03;100.00
48652;BME280;34442;52.362;-1.302;2024-02-15T09:43:50;99444.31;;;15.01;100.00
48652;BME280;34442;52.362;-1.302;2024-02-15T09:46:19;99431.00;;;14.94;100.00
48652;BME280;34442;52.362;-1.302;2024-02-15T09:48:50;99434.34;;;15.06;100.00
48652;BME280;34442;52.362;-1.302;2024-02-15T09:51:18;99426.78;;;15.08;100.00
48652;BME280;34442;52.362;-1.302;2024-02-15T09:53:46;99421.28;;;14.98;100.00
48652;BME280;34442;52.362;-1.302;2024-02-15T09:56:13;99433.81;;;15.09;100.00
48652;BME280;34442;52.362;-1.302;2024-02-15T09:58:40;99426.31;;;15.22;100.00
48652;BME280;34442;52.362;-1.302;2024-02-15T10:01:07;99416.03;;;15.19;100.00
48652;BME280;34442;52.362;-1.302;2024-02-15T10:03:37;99411.94;;;15.16;100.00
48652;BME280;34442;52.362;-1.302;2024-02-15T10:06:05;99408.97;;;15.18;100.00
48652;BME280;34442;52.362;-1.302;2024-02-15T10:08:31;99411.22;;;15.31;100.00
48652;BME280;34442;52.362;-1.302;2024-02-15T10:11:12;99412.88;;;15.37;100.00
48652;BME280;34442;52.362;-1.302;2024-02-15T10:13:38;99408.16;;;15.17;100.00
48652;BME280;34442;52.362;-1.302;2024-02-15T10:16:15;99408.66;;;15.14;100.00
48652;BME280;34442;52.362;-1.302;2024-02-15T10:18:41;99407.28;;;15.06;100.00
48652;BME280;34442;52.362;-1.302;2024-02-15T10:21:06;99411.72;;;15.23;100.00
48652;BME280;34442;52.362;-1.302;2024-02-15T10:23:32;99393.28;;;15.20;100.00
48652;BME280;34442;52.362;-1.302;2024-02-15T10:25:57;99391.38;;;15.20;100.00
48652;BME280;34442;52.362;-1.302;2024-02-15T10:28:23;99395.91;;;15.09;100.00
48652;BME280;34442;52.362;-1.302;2024-02-15T10:30:50;99395.91;;;15.09;100.00
48652;BME280;34442;52.362;-1.302;2024-02-15T10:33:30;99390.78;;;15.13;100.00
48652;BME280;34442;52.362;-1.302;2024-02-15T10:36:09;99389.44;;;15.10;100.00
48652;BME280;34442;52.362;-1.302;2024-02-15T10:38:35;99381.25;;;15.05;100.00
48652;BME280;34442;52.362;-1.302;2024-02-15T10:41:05;99382.13;;;14.47;100.00
48652;BME280;34442;52.362;-1.302;2024-02-15T10:43:32;99393.47;;;15.08;100.00
48652;BME280;34442;52.362;-1.302;2024-02-15T10:45:59;99391.94;;;15.22;100.00
48652;BME280;34442;52.362;-1.302;2024-02-15T10:48:26;99381.63;;;15.19;100.00
48652;BME280;34442;52.362;-1.302;2024-02-15T10:50:56;99377.56;;;15.22;100.00
48652;BME280;34442;52.362;-1.302;2024-02-15T10:53:26;99381.16;;;15.32;100.00
48652;BME280;34442;52.362;-1.302;2024-02-15T10:56:18;99376.03;;;15.31;100.00
48652;BME280;34442;52.362;-1.302;2024-02-15T10:58:50;99365.47;;;15.34;100.00
48652;BME280;34442;52.362;-1.302;2024-02-15T11:01:19;99357.56;;;15.23;100.00
48652;BME280;34442;52.362;-1.302;2024-02-15T11:03:52;99348.34;;;15.19;100.00
48652;BME280;34442;52.362;-1.302;2024-02-15T11:06:26;99335.31;;;15.16;100.00
48652;BME280;34442;52.362;-1.302;2024-02-15T11:08:52;99338.03;;;15.16;100.00
48652;BME280;34442;52.362;-1.302;2024-02-15T11:11:19;99328.00;;;15.16;100.00
48652;BME280;34442;52.362;-1.302;2024-02-15T11:13:46;99339.63;;;15.11;100.00
48652;BME280;34442;52.362;-1.302;2024-02-15T11:16:39;99324.53;;;15.26;100.00
48652;BME280;34442;52.362;-1.302;2024-02-15T11:19:04;99334.25;;;15.22;100.00
48652;BME280;34442;52.362;-1.302;2024-02-15T11:21:55;99333.22;;;15.28;100.00
48652;BME280;34442;52.362;-1.302;2024-02-15T11:24:28;99326.50;;;15.41;100.00
48652;BME280;34442;52.362;-1.302;2024-02-15T11:27:04;99328.13;;;15.42;100.00
48652;BME280;34442;52.362;-1.302;2024-02-15T11:29:49;99329.75;;;15.43;100.00
48652;BME280;34442;52.362;-1.302;2024-02-15T11:35:10;99334.34;;;15.42;100.00
48652;BME280;34442;52.362;-1.302;2024-02-15T11:40:26;99328.72;;;15.59;100.00
48652;BME280;34442;52.362;-1.302;2024-02-15T11:43:00;99313.50;;;15.43;100.00
48652;BME280;34442;52.362;-1.302;2024-02-15T11:45:27;99319.47;;;15.45;100.00
48652;BME280;34442;52.362;-1.302;2024-02-15T11:48:02;99307.28;;;15.42;100.00
48652;BME280;34442;52.362;-1.302;2024-02-15T11:50:28;99304.03;;;14.87;100.00
48652;BME280;34442;52.362;-1.302;2024-02-15T11:53:04;99303.19;;;14.82;100.00
48652;BME280;34442;52.362;-1.302;2024-02-15T11:55:39;99305.63;;;15.36;100.00
48652;BME280;34442;52.362;-1.302;2024-02-15T11:58:06;99292.69;;;15.53;100.00
48652;BME280;34442;52.362;-1.302;2024-02-15T12:00:34;99291.91;;;15.00;100.00
48652;BME280;34442;52.362;-1.302;2024-02-15T12:03:19;99287.69;;;14.72;100.00
48652;BME280;34442;52.362;-1.302;2024-02-15T12:06:03;99268.41;;;14.63;100.00
48652;BME280;34442;52.362;-1.302;2024-02-15T12:08:49;99272.00;;;14.69;100.00
48652;BME280;34442;52.362;-1.302;2024-02-15T12:11:34;99270.41;;;14.73;100.00
48652;BME280;34442;52.362;-1.302;2024-02-15T12:14:18;99269.53;;;14.68;100.00
48652;BME280;34442;52.362;-1.302;2024-02-15T12:17:06;99257.06;;;14.61;100.00
48652;BME280;34442;52.362;-1.302;2024-02-15T12:19:52;99266.09;;;14.77;100.00
48652;BME280;34442;52.362;-1.302;2024-02-15T12:22:25;99264.25;;;14.88;100.00
48652;BME280;34442;52.362;-1.302;2024-02-15T12:25:14;99257.47;;;14.85;100.00
48652;BME280;34442;52.362;-1.302;2024-02-15T12:27:43;99258.84;;;14.93;100.00
48652;BME280;34442;52.362;-1.302;2024-02-15T12:30:16;99253.91;;;15.32;100.00
48652;BME280;34442;52.362;-1.302;2024-02-15T12:32:51;99245.34;;;15.66;100.00
48652;BME280;34442;52.362;-1.302;2024-02-15T12:35:19;99245.69;;;15.17;100.00
48652;BME280;34442;52.362;-1.302;2024-02-15T12:37:45;99245.72;;;15.22;100.00
48652;BME280;34442;52.362;-1.302;2024-02-15T12:40:12;99237.03;;;15.15;100.00
48652;BME280;34442;52.362;-1.302;2024-02-15T12:42:42;99237.59;;;15.17;100.00
48652;BME280;34442;52.362;-1.302;2024-02-15T12:45:17;99234.88;;;15.22;100.00
48652;BME280;34442;52.362;-1.302;2024-02-15T12:47:55;99237.41;;;15.39;100.00
48652;BME280;34442;52.362;-1.302;2024-02-15T12:50:28;99223.00;;;15.33;100.00
48652;BME280;34442;52.362;-1.302;2024-02-15T12:52:54;99227.75;;;15.74;100.00
48652;BME280;34442;52.362;-1.302;2024-02-15T12:55:29;99224.00;;;16.05;100.00